Terminal Aerodrome Forecast
Issued by NWS Detroit/Pontiac, MI

Home | Current Version | Previous Version | Text Only | Print | Product List | Glossary On
Versions: 1 2 3 4 5 6 7 8 9 10 11 12 13 14 15 16 17 18 19 20 21 22 23 24 25 26
000
FTUS43 KDTX 191403 AAB
TAFDTW
TAF AMD
KDTW 191403Z 1914/2018 06005KT P6SM SCT012 BKN040 OVC090
      TEMPO 1914/1917 3SM SHRA BR OVC008
     FM191700 10005KT 6SM -SHRA BR BKN018 OVC040
     FM192100 12005KT P6SM BKN022 OVC080
     FM200200 16004KT 4SM BR BKN012 OVC060
     FM201400 17006KT P6SM BKN028 OVC100=

USA.gov is the U.S. government's official web portal to all federal, state and local government web resources and services.